createdAt,value
2022-11-10T00:01:10.734Z,9.00
2022-11-10T00:03:39.370Z,9.00
2022-11-10T00:06:10.152Z,9.00
2022-11-10T00:08:37.227Z,9.00
2022-11-10T00:11:07.610Z,9.10
2022-11-10T00:13:37.567Z,9.10
2022-11-10T00:16:06.298Z,9.10
2022-11-10T00:18:33.838Z,9.10
2022-11-10T00:21:09.199Z,9.20
2022-11-10T00:23:36.593Z,9.20
2022-11-10T00:26:04.633Z,9.20
2022-11-10T00:28:34.864Z,9.20
2022-11-10T00:31:06.443Z,9.20
2022-11-10T00:33:44.043Z,9.20
2022-11-10T00:36:11.858Z,9.20
2022-11-10T00:38:39.262Z,9.20
2022-11-10T00:41:06.290Z,9.30
2022-11-10T00:43:35.873Z,9.30
2022-11-10T00:46:03.291Z,9.30
2022-11-10T00:48:30.360Z,9.20
2022-11-10T00:50:57.728Z,9.30
2022-11-10T00:53:25.441Z,9.30
2022-11-10T00:55:52.701Z,9.30
2022-11-10T00:58:20.104Z,9.30
2022-11-10T01:00:47.335Z,9.30
2022-11-10T01:03:16.991Z,9.30
2022-11-10T01:05:47.137Z,9.20
2022-11-10T01:08:14.253Z,9.30
2022-11-10T01:10:41.484Z,9.30
2022-11-10T01:13:11.008Z,9.30
2022-11-10T01:15:42.765Z,9.40
2022-11-10T01:18:10.364Z,9.40
2022-11-10T01:20:37.555Z,9.40
2022-11-10T01:23:07.298Z,9.40
2022-11-10T01:25:34.271Z,9.40
2022-11-10T01:28:01.345Z,9.40
2022-11-10T01:30:28.979Z,9.30
2022-11-10T01:32:58.554Z,9.30
2022-11-10T01:35:25.594Z,9.20
2022-11-10T01:37:55.182Z,9.20
2022-11-10T01:40:22.294Z,9.20
2022-11-10T01:42:56.087Z,9.20
2022-11-10T01:45:23.516Z,9.10
2022-11-10T01:48:01.270Z,9.20
2022-11-10T01:50:32.543Z,9.20
2022-11-10T01:53:04.829Z,9.20
2022-11-10T01:55:34.199Z,9.20
2022-11-10T01:58:04.502Z,9.20
2022-11-10T02:00:34.164Z,9.20
2022-11-10T02:03:23.248Z,9.10
2022-11-10T02:05:51.040Z,9.10
2022-11-10T02:08:19.415Z,9.10
2022-11-10T02:10:46.705Z,9.10
2022-11-10T02:13:13.773Z,9.10
2022-11-10T02:15:45.467Z,9.10
2022-11-10T02:18:15.018Z,9.10
2022-11-10T02:20:46.159Z,9.10
2022-11-10T02:23:36.149Z,9.10
2022-11-10T02:26:07.111Z,9.20
2022-11-10T02:28:38.336Z,9.20
2022-11-10T02:31:06.377Z,9.20
2022-11-10T02:33:33.741Z,9.20
2022-11-10T02:36:00.863Z,9.20
2022-11-10T02:38:28.322Z,9.30
2022-11-10T02:40:55.633Z,9.30
2022-11-10T02:43:25.140Z,9.30
2022-11-10T02:45:52.761Z,9.30
2022-11-10T02:48:20.000Z,9.30
2022-11-10T02:50:47.378Z,9.30
2022-11-10T02:53:14.524Z,9.30
2022-11-10T02:55:42.042Z,9.40
2022-11-10T02:58:11.737Z,9.40
2022-11-10T03:03:26.464Z,9.30
2022-11-10T03:05:54.073Z,9.30
2022-11-10T03:08:21.039Z,9.30
2022-11-10T03:10:48.212Z,9.30
2022-11-10T03:13:17.875Z,9.30
2022-11-10T03:15:46.983Z,9.30
2022-11-10T03:18:16.702Z,9.30
2022-11-10T03:20:47.872Z,9.30
2022-11-10T03:23:15.509Z,9.30
2022-11-10T03:25:42.635Z,9.30
2022-11-10T03:28:12.899Z,9.30
2022-11-10T03:30:40.262Z,9.40
2022-11-10T03:33:07.533Z,9.40
2022-11-10T03:35:35.228Z,9.40
2022-11-10T03:38:02.391Z,9.40
2022-11-10T03:40:45.496Z,9.30
2022-11-10T03:43:20.284Z,9.40
2022-11-10T03:45:47.750Z,9.30
2022-11-10T03:48:14.828Z,9.30
2022-11-10T03:50:42.443Z,9.30
2022-11-10T03:53:09.764Z,9.30
2022-11-10T03:55:36.803Z,9.30
2022-11-10T03:58:07.276Z,9.30
2022-11-10T04:00:36.674Z,9.30
2022-11-10T04:03:03.702Z,9.30
2022-11-10T04:05:31.342Z,9.30
2022-11-10T04:08:02.423Z,9.30
2022-11-10T04:10:35.100Z,9.30
2022-11-10T04:13:02.744Z,9.30
2022-11-10T04:15:29.806Z,9.30
2022-11-10T04:17:59.305Z,9.30
2022-11-10T04:20:29.401Z,9.30
2022-11-10T04:22:56.562Z,9.30
2022-11-10T04:25:23.593Z,9.30
2022-11-10T04:27:51.169Z,9.30
2022-11-10T04:30:18.345Z,9.30
2022-11-10T04:32:45.385Z,9.20
2022-11-10T04:35:12.827Z,9.20
2022-11-10T04:37:42.532Z,9.20
2022-11-10T04:40:12.299Z,9.20
2022-11-10T04:42:40.093Z,9.20
2022-11-10T04:45:07.470Z,9.20
2022-11-10T04:47:34.466Z,9.20
2022-11-10T04:50:02.080Z,9.20
2022-11-10T04:52:31.403Z,9.20
2022-11-10T04:55:00.854Z,9.20
2022-11-10T04:57:28.373Z,9.20
2022-11-10T04:59:57.611Z,9.30
2022-11-10T05:02:29.392Z,9.30
2022-11-10T05:04:57.148Z,9.20
2022-11-10T05:07:24.172Z,9.20
2022-11-10T05:09:53.344Z,9.30
2022-11-10T05:12:23.395Z,9.20
2022-11-10T05:14:50.449Z,9.20
2022-11-10T05:17:22.100Z,9.20
2022-11-10T05:19:49.760Z,9.20
2022-11-10T05:22:19.146Z,9.20
2022-11-10T05:24:46.462Z,9.20
2022-11-10T05:27:15.867Z,9.20
2022-11-10T05:29:45.536Z,9.20
2022-11-10T05:32:15.555Z,9.20
2022-11-10T05:34:45.225Z,9.30
2022-11-10T05:37:14.486Z,9.20
2022-11-10T05:39:41.926Z,9.20
2022-11-10T05:42:09.054Z,9.20
2022-11-10T05:44:38.728Z,9.20
2022-11-10T05:47:06.417Z,9.10
2022-11-10T05:49:34.046Z,9.10
2022-11-10T05:52:01.362Z,9.10
2022-11-10T05:54:30.939Z,9.00
2022-11-10T05:56:58.055Z,9.00
2022-11-10T05:59:28.041Z,8.90
2022-11-10T06:01:55.136Z,8.90
2022-11-10T06:04:24.988Z,8.90
2022-11-10T06:06:52.344Z,8.80
2022-11-10T06:09:21.905Z,8.80
2022-11-10T06:11:49.749Z,8.80
2022-11-10T06:14:17.147Z,8.80
2022-11-10T06:16:44.264Z,8.80
2022-11-10T06:19:11.377Z,8.80
2022-11-10T06:21:38.871Z,8.80
2022-11-10T06:24:06.176Z,8.80
2022-11-10T06:26:33.437Z,8.80
2022-11-10T06:29:00.875Z,8.90
2022-11-10T06:31:30.733Z,8.90
2022-11-10T06:33:58.247Z,8.90
2022-11-10T06:36:25.319Z,8.90
2022-11-10T06:38:52.772Z,9.00
2022-11-10T06:41:25.053Z,9.00
2022-11-10T06:43:52.657Z,9.10
2022-11-10T06:46:19.778Z,9.10
2022-11-10T06:48:47.195Z,9.10
2022-11-10T06:51:16.564Z,9.20
2022-11-10T06:53:46.354Z,9.20
2022-11-10T06:56:13.494Z,9.30
2022-11-10T06:58:43.286Z,9.30
2022-11-10T07:01:10.409Z,9.30
2022-11-10T07:03:44.452Z,9.40
2022-11-10T07:06:21.073Z,9.40
2022-11-10T07:08:51.401Z,9.50
2022-11-10T07:11:18.356Z,9.60
2022-11-10T07:13:45.805Z,9.70
2022-11-10T07:16:15.102Z,9.80
2022-11-10T07:18:44.340Z,9.80
2022-11-10T07:21:11.728Z,9.90
2022-11-10T07:23:41.058Z,9.90
2022-11-10T07:26:08.336Z,9.80
2022-11-10T07:28:35.504Z,9.80
2022-11-10T07:31:03.687Z,9.90
2022-11-10T07:33:31.046Z,9.90
2022-11-10T07:36:01.795Z,9.90
2022-11-10T07:38:31.381Z,9.90
2022-11-10T07:40:58.914Z,9.80
2022-11-10T07:43:26.020Z,9.80
2022-11-10T07:45:55.921Z,9.80
2022-11-10T07:48:22.935Z,9.80
2022-11-10T07:50:51.246Z,9.80
2022-11-10T07:53:20.380Z,9.90
2022-11-10T07:55:48.603Z,10.00
2022-11-10T07:58:17.980Z,10.20
2022-11-10T08:00:50.113Z,10.40
2022-11-10T08:03:20.297Z,10.70
2022-11-10T08:05:50.507Z,11.00
2022-11-10T08:08:18.001Z,11.40
2022-11-10T08:10:45.447Z,11.70
2022-11-10T08:13:13.368Z,12.00
2022-11-10T08:15:41.555Z,12.40
2022-11-10T08:18:14.023Z,12.90
2022-11-10T08:20:44.462Z,13.30
2022-11-10T08:23:14.309Z,13.60
2022-11-10T08:25:42.033Z,15.00
2022-11-10T08:28:14.782Z,16.80
2022-11-10T08:30:43.745Z,17.50
2022-11-10T08:33:13.223Z,19.90
2022-11-10T08:35:42.971Z,21.60
2022-11-10T08:38:14.203Z,21.70
2022-11-10T08:40:42.847Z,22.70
2022-11-10T08:43:13.535Z,24.90
2022-11-10T08:45:42.323Z,27.00
2022-11-10T08:48:12.192Z,27.00
2022-11-10T08:50:39.706Z,25.20
2022-11-10T08:53:14.802Z,23.60
2022-11-10T08:55:43.679Z,24.90
2022-11-10T08:58:19.183Z,25.50
2022-11-10T09:00:47.595Z,25.20
2022-11-10T09:03:18.995Z,26.00
2022-11-10T09:05:55.081Z,27.00
2022-11-10T09:08:27.590Z,27.00
2022-11-10T09:10:55.456Z,25.90
2022-11-10T09:13:27.649Z,26.50
2022-11-10T09:16:01.810Z,27.80
2022-11-10T09:18:28.975Z,30.70
2022-11-10T09:20:58.797Z,33.50
2022-11-10T09:23:26.363Z,35.50
2022-11-10T09:25:58.985Z,37.10
2022-11-10T09:28:26.028Z,38.40
2022-11-10T09:30:54.201Z,39.80
2022-11-10T09:33:23.788Z,40.70
2022-11-10T09:35:51.697Z,40.10
2022-11-10T09:38:21.796Z,40.10
2022-11-10T09:41:01.507Z,40.60
2022-11-10T09:43:34.452Z,41.50
2022-11-10T09:46:09.722Z,42.10
2022-11-10T09:48:44.073Z,42.80
2022-11-10T09:51:19.073Z,43.40
2022-11-10T09:53:59.143Z,43.30
2022-11-10T09:56:33.942Z,42.80
2022-11-10T09:59:06.779Z,42.10
2022-11-10T10:01:51.836Z,40.80
2022-11-10T10:05:10.258Z,39.80
2022-11-10T10:07:49.659Z,37.90
2022-11-10T10:10:34.826Z,37.70
2022-11-10T10:13:05.080Z,38.20
2022-11-10T10:16:14.068Z,38.40
2022-11-10T10:19:07.726Z,36.40
2022-11-10T10:22:07.100Z,32.90
2022-11-10T10:24:39.774Z,29.60
2022-11-10T10:27:09.901Z,26.50
2022-11-10T10:29:45.598Z,26.10
2022-11-10T10:32:19.301Z,28.30
2022-11-10T10:34:47.337Z,28.40
2022-11-10T10:37:42.525Z,27.50
2022-11-10T10:40:15.772Z,28.60
2022-11-10T10:42:45.571Z,31.90
2022-11-10T10:45:31.034Z,34.20
2022-11-10T10:47:58.513Z,36.30
2022-11-10T10:50:31.419Z,37.40
2022-11-10T10:53:23.517Z,36.50
2022-11-10T10:55:50.864Z,36.30
2022-11-10T10:58:23.860Z,37.40
2022-11-10T11:01:01.993Z,38.40
2022-11-10T11:03:34.812Z,39.50
2022-11-10T11:06:04.116Z,40.20
2022-11-10T11:08:31.138Z,40.70
2022-11-10T11:11:07.977Z,38.80
2022-11-10T11:13:38.024Z,37.10
2022-11-10T11:16:08.005Z,36.80
2022-11-10T11:18:38.274Z,35.40
2022-11-10T11:21:20.745Z,32.50
2022-11-10T11:24:02.513Z,29.50
2022-11-10T11:26:55.453Z,26.80
2022-11-10T11:29:50.533Z,24.30
2022-11-10T11:32:38.250Z,22.30
2022-11-10T11:35:27.905Z,21.00
2022-11-10T11:38:14.647Z,19.90
2022-11-10T11:40:49.770Z,19.00
2022-11-10T11:43:50.772Z,18.20
2022-11-10T11:46:49.305Z,17.60
2022-11-10T11:49:49.479Z,17.10
2022-11-10T11:52:42.074Z,16.80
2022-11-10T11:55:15.635Z,16.60
2022-11-10T11:57:54.383Z,16.50
2022-11-10T12:00:22.195Z,16.40
2022-11-10T12:03:46.980Z,16.30
2022-11-10T12:06:41.631Z,16.00
2022-11-10T12:09:33.059Z,15.90
2022-11-10T12:12:00.599Z,15.80
2022-11-10T12:14:27.552Z,15.80
2022-11-10T12:17:09.375Z,15.90
2022-11-10T12:19:41.901Z,15.90
2022-11-10T12:22:22.359Z,15.90
2022-11-10T12:25:03.359Z,15.70
2022-11-10T12:27:44.785Z,15.60
2022-11-10T12:30:14.885Z,15.60
2022-11-10T12:32:57.142Z,15.40
2022-11-10T12:35:39.137Z,15.30
2022-11-10T12:38:08.736Z,15.10
2022-11-10T12:40:44.181Z,15.00
2022-11-10T12:43:23.191Z,14.90
2022-11-10T12:45:58.585Z,14.90
2022-11-10T12:48:37.649Z,14.80
2022-11-10T12:51:16.030Z,14.70
2022-11-10T12:53:47.933Z,14.80
2022-11-10T12:56:24.495Z,14.70
2022-11-10T12:59:15.854Z,14.70
2022-11-10T13:01:46.117Z,14.60
2022-11-10T13:04:18.108Z,14.70
2022-11-10T13:06:53.841Z,14.70
2022-11-10T13:09:36.542Z,14.70
2022-11-10T13:12:22.871Z,14.70
2022-11-10T13:14:50.064Z,14.70
2022-11-10T13:17:26.608Z,14.70
2022-11-10T13:20:05.250Z,14.60
2022-11-10T13:22:47.585Z,14.60
2022-11-10T13:25:36.467Z,14.50
2022-11-10T13:28:05.669Z,14.50
2022-11-10T13:30:43.106Z,14.40
2022-11-10T13:33:25.776Z,14.40
2022-11-10T13:35:55.977Z,14.40
2022-11-10T13:38:32.646Z,14.30
2022-11-10T13:41:17.991Z,14.20
2022-11-10T13:43:54.320Z,14.20
2022-11-10T13:46:44.439Z,14.10
2022-11-10T13:49:24.996Z,14.10
2022-11-10T13:52:16.170Z,14.00
2022-11-10T13:55:15.893Z,14.00
2022-11-10T13:58:10.163Z,14.00
2022-11-10T14:00:40.131Z,13.90
2022-11-10T14:03:45.433Z,13.90
2022-11-10T14:06:21.589Z,13.90
2022-11-10T14:09:00.650Z,13.80
2022-11-10T14:11:35.908Z,13.70
2022-11-10T14:14:17.473Z,13.70
2022-11-10T14:16:45.134Z,13.60
2022-11-10T14:19:36.534Z,13.60
2022-11-10T14:22:18.526Z,13.50
2022-11-10T14:25:17.771Z,13.40
2022-11-10T14:27:45.622Z,13.20
2022-11-10T14:30:18.871Z,13.10
2022-11-10T14:33:02.001Z,13.00
2022-11-10T14:35:44.769Z,12.90
2022-11-10T14:38:20.897Z,12.70
2022-11-10T14:40:53.822Z,12.60
2022-11-10T14:43:30.963Z,12.60
2022-11-10T14:45:58.871Z,12.50
2022-11-10T14:48:28.979Z,12.40
2022-11-10T14:51:03.885Z,12.30
2022-11-10T14:53:37.727Z,12.20
2022-11-10T14:56:08.323Z,12.10
2022-11-10T14:58:38.362Z,12.00
2022-11-10T15:01:20.582Z,11.90
2022-11-10T15:03:48.682Z,11.80
2022-11-10T15:06:16.317Z,11.70
2022-11-10T15:08:46.274Z,11.70
2022-11-10T15:11:33.631Z,11.60
2022-11-10T15:14:03.702Z,11.50
2022-11-10T15:16:34.936Z,11.40
2022-11-10T15:19:27.728Z,11.30
2022-11-10T15:21:55.042Z,11.30
2022-11-10T15:24:24.936Z,11.10
2022-11-10T15:26:52.368Z,11.10
2022-11-10T15:29:22.124Z,11.00
2022-11-10T15:31:52.596Z,10.90
2022-11-10T15:34:43.914Z,10.90
2022-11-10T15:37:31.671Z,10.80
2022-11-10T15:40:30.413Z,10.70
2022-11-10T15:43:15.523Z,10.70
2022-11-10T15:45:48.992Z,10.60
2022-11-10T15:48:17.215Z,10.50
2022-11-10T15:50:48.248Z,10.50
2022-11-10T15:53:18.619Z,10.40
2022-11-10T15:55:46.493Z,10.40
2022-11-10T15:58:19.176Z,10.30
2022-11-10T16:00:47.000Z,10.20
2022-11-10T16:03:16.336Z,10.20
2022-11-10T16:05:44.228Z,10.20
2022-11-10T16:08:16.042Z,10.10
2022-11-10T16:10:46.322Z,10.10
2022-11-10T16:13:17.180Z,10.00
2022-11-10T16:15:47.450Z,10.00
2022-11-10T16:18:16.993Z,10.00
2022-11-10T16:20:47.231Z,10.00
2022-11-10T16:23:17.255Z,9.90
2022-11-10T16:25:48.841Z,9.90
2022-11-10T16:28:25.195Z,9.90
2022-11-10T16:30:54.073Z,9.80
2022-11-10T16:33:25.005Z,9.80
2022-11-10T16:35:55.577Z,9.80
2022-11-10T16:38:27.402Z,9.70
2022-11-10T16:40:57.592Z,9.70
2022-11-10T16:43:26.073Z,9.70
2022-11-10T16:45:55.502Z,9.60
2022-11-10T16:48:30.432Z,9.60
2022-11-10T16:51:00.303Z,9.50
2022-11-10T16:53:32.847Z,9.60
2022-11-10T16:56:00.212Z,9.50
2022-11-10T16:58:30.522Z,9.50
2022-11-10T17:01:00.934Z,9.40
2022-11-10T17:03:38.090Z,9.40
2022-11-10T17:06:13.139Z,9.30
2022-11-10T17:08:44.104Z,9.30
2022-11-10T17:11:15.190Z,9.30
2022-11-10T17:13:44.395Z,9.30
2022-11-10T17:16:39.321Z,9.30
2022-11-10T17:19:21.667Z,9.30
2022-11-10T17:21:50.692Z,9.30
2022-11-10T17:24:22.653Z,9.40
2022-11-10T17:26:50.397Z,9.40
2022-11-10T17:29:19.957Z,9.40
2022-11-10T17:31:49.658Z,9.40
2022-11-10T17:34:16.987Z,9.40
2022-11-10T17:36:44.285Z,9.30
2022-11-10T17:39:15.329Z,9.30
2022-11-10T17:41:42.591Z,9.20
2022-11-10T17:44:14.964Z,9.10
2022-11-10T17:46:43.097Z,9.10
2022-11-10T17:49:10.433Z,9.10
2022-11-10T17:51:37.825Z,9.00
2022-11-10T17:54:08.705Z,9.00
2022-11-10T17:56:38.386Z,9.10
2022-11-10T17:59:05.412Z,9.10
2022-11-10T18:01:35.303Z,9.20
2022-11-10T18:04:02.322Z,9.30
2022-11-10T18:06:31.543Z,9.30
2022-11-10T18:08:58.756Z,9.40
2022-11-10T18:11:25.829Z,9.40
2022-11-10T18:13:53.256Z,9.50
2022-11-10T18:16:20.487Z,9.50
2022-11-10T18:18:49.994Z,9.60
2022-11-10T18:21:17.344Z,9.70
2022-11-10T18:23:47.129Z,9.70
2022-11-10T18:26:16.727Z,9.70
2022-11-10T18:28:45.935Z,9.70
2022-11-10T18:31:13.475Z,9.70
2022-11-10T18:33:41.105Z,9.70
2022-11-10T18:36:08.931Z,9.70
2022-11-10T18:38:38.287Z,9.70
2022-11-10T18:41:07.202Z,9.60
2022-11-10T18:43:34.852Z,9.60
2022-11-10T18:46:02.510Z,9.60
2022-11-10T18:48:33.389Z,9.60
2022-11-10T18:51:07.683Z,9.50
2022-11-10T18:53:38.310Z,9.50
2022-11-10T18:56:06.394Z,9.40
2022-11-10T18:58:35.970Z,9.40
2022-11-10T19:01:10.453Z,9.40
2022-11-10T19:03:38.007Z,9.30
2022-11-10T19:06:08.272Z,9.40
2022-11-10T19:08:45.595Z,9.30
2022-11-10T19:11:15.480Z,9.30
2022-11-10T19:13:43.204Z,9.20
2022-11-10T19:16:15.922Z,9.10
2022-11-10T19:18:43.312Z,9.10
2022-11-10T19:21:20.341Z,9.10
2022-11-10T19:23:53.724Z,9.00
2022-11-10T19:26:22.804Z,9.00
2022-11-10T19:28:50.816Z,8.90
2022-11-10T19:31:19.259Z,8.90
2022-11-10T19:33:50.230Z,8.90
2022-11-10T19:36:24.144Z,8.90
2022-11-10T19:38:55.153Z,8.90
2022-11-10T19:41:28.204Z,8.90
2022-11-10T19:43:55.899Z,8.90
2022-11-10T19:46:28.166Z,8.90
2022-11-10T19:48:55.916Z,8.90
2022-11-10T19:51:24.949Z,8.80
2022-11-10T19:54:04.877Z,8.80
2022-11-10T19:56:33.056Z,8.80
2022-11-10T19:59:02.572Z,8.80
2022-11-10T20:01:32.223Z,8.70
2022-11-10T20:04:00.881Z,8.70
2022-11-10T20:06:28.403Z,8.70
2022-11-10T20:08:57.971Z,8.70
2022-11-10T20:11:26.657Z,8.60
2022-11-10T20:13:59.964Z,8.60
2022-11-10T20:16:30.007Z,8.60
2022-11-10T20:18:57.138Z,8.50
2022-11-10T20:21:24.729Z,8.60
2022-11-10T20:23:55.405Z,8.60
2022-11-10T20:26:24.001Z,8.60
2022-11-10T20:28:51.286Z,8.50
2022-11-10T20:31:21.640Z,8.60
2022-11-10T20:33:51.631Z,8.60
2022-11-10T20:36:21.886Z,8.70
2022-11-10T20:38:50.653Z,8.80
2022-11-10T20:41:22.400Z,8.80
2022-11-10T20:43:49.671Z,8.80
2022-11-10T20:46:40.313Z,8.80
2022-11-10T20:49:06.445Z,8.80
2022-11-10T20:51:34.270Z,8.80
2022-11-10T20:54:01.905Z,8.80
2022-11-10T20:56:31.800Z,8.70
2022-11-10T20:58:59.093Z,8.70
2022-11-10T21:01:28.991Z,8.70
2022-11-10T21:03:58.263Z,8.70
2022-11-10T21:06:28.470Z,8.80
2022-11-10T21:08:55.679Z,8.80
2022-11-10T21:11:23.263Z,8.80
2022-11-10T21:13:50.415Z,8.70
2022-11-10T21:16:17.765Z,8.70
2022-11-10T21:18:44.807Z,8.60
2022-11-10T21:21:30.028Z,8.60
2022-11-10T21:23:57.669Z,8.60
2022-11-10T21:26:24.919Z,8.60
2022-11-10T21:28:55.185Z,8.60
2022-11-10T21:31:22.263Z,8.60
2022-11-10T21:33:55.233Z,8.60
2022-11-10T21:36:22.311Z,8.50
2022-11-10T21:38:49.689Z,8.50
2022-11-10T21:41:19.457Z,8.50
2022-11-10T21:43:46.733Z,8.50
2022-11-10T21:46:13.825Z,8.50
2022-11-10T21:48:41.443Z,8.50
2022-11-10T21:51:09.666Z,8.50
2022-11-10T21:53:37.445Z,8.50
2022-11-10T21:56:06.761Z,8.50
2022-11-10T21:58:34.533Z,8.50
2022-11-10T22:01:07.184Z,8.50
2022-11-10T22:03:37.516Z,8.60
2022-11-10T22:06:18.473Z,8.60
2022-11-10T22:08:46.819Z,8.60
2022-11-10T22:11:18.967Z,8.60
2022-11-10T22:13:51.307Z,8.50
2022-11-10T22:16:34.925Z,8.50
2022-11-10T22:19:03.553Z,8.50
2022-11-10T22:21:31.200Z,8.50
2022-11-10T22:24:00.410Z,8.50
2022-11-10T22:26:30.153Z,8.60
2022-11-10T22:28:57.758Z,8.60
2022-11-10T22:31:24.851Z,8.60
2022-11-10T22:33:52.467Z,8.60
2022-11-10T22:36:22.072Z,8.60
2022-11-10T22:38:51.405Z,8.60
2022-11-10T22:41:21.108Z,8.60
2022-11-10T22:43:50.336Z,8.60
2022-11-10T22:46:17.286Z,8.70
2022-11-10T22:48:44.879Z,8.60
2022-11-10T22:51:11.913Z,8.70
2022-11-10T22:53:41.453Z,8.60
2022-11-10T22:56:09.230Z,8.60
2022-11-10T22:58:36.267Z,8.60
2022-11-10T23:01:12.842Z,8.60
2022-11-10T23:03:42.356Z,8.60
2022-11-10T23:06:10.256Z,8.60
2022-11-10T23:08:39.733Z,8.60
2022-11-10T23:11:12.552Z,8.50
2022-11-10T23:13:40.010Z,8.60
2022-11-10T23:16:09.119Z,8.50
2022-11-10T23:18:37.236Z,8.50
2022-11-10T23:21:08.274Z,8.50
2022-11-10T23:23:37.432Z,8.50
2022-11-10T23:26:13.848Z,8.50
2022-11-10T23:28:41.180Z,8.50
2022-11-10T23:31:14.713Z,8.60
2022-11-10T23:33:43.675Z,8.50
2022-11-10T23:36:15.196Z,8.50
2022-11-10T23:38:42.991Z,8.50
2022-11-10T23:41:16.711Z,8.40
2022-11-10T23:43:43.994Z,8.50
2022-11-10T23:46:11.659Z,8.50
2022-11-10T23:48:39.552Z,8.50
2022-11-10T23:51:08.013Z,8.50
2022-11-10T23:53:38.108Z,8.40
2022-11-10T23:56:08.838Z,8.50
2022-11-10T23:58:36.665Z,8.40
